Time;durP1;ratioP1;P1;durP2;ratioP2;P2;SDS_P1;SDS_P2;PMS_P1;PMS_P2;Temp;Humidity;BMP_temperature;BMP_pressure;BME280_temperature;BME280_humidity;BME280_pressure;Samples;Min_cycle;Max_cycle;Signal;HPM_P1;HPM_P2
2022/10/01 00:00:20;;;;;;;6.93;5.17;;;;;;;16.90;100.00;101745.06;2089322;28;20192;-61
2022/10/01 00:01:20;;;;;;;6.57;5.03;;;;;;;16.85;100.00;101749.19;2093481;28;20203;-61
2022/10/01 00:02:21;;;;;;;6.57;4.50;;;;;;;16.85;100.00;101749.19;2091451;28;20179;-61
2022/10/01 00:03:24;;;;;;;6.50;4.53;;;;;;;16.88;100.00;101743.94;2097273;28;20200;-61
2022/10/01 00:04:25;;;;;;;6.53;4.47;;;;;;;16.91;100.00;101752.22;2098064;28;20184;-62
2022/10/01 00:05:26;;;;;;;7.90;5.03;;;;;;;16.60;100.00;101704.38;2091154;28;20414;-61
2022/10/01 00:06:26;;;;;;;8.30;4.57;;;;;;;16.90;100.00;101761.84;2095936;28;20416;-61
2022/10/01 00:07:27;;;;;;;6.60;4.23;;;;;;;16.93;100.00;101756.13;2088057;28;20294;-61
2022/10/01 00:08:30;;;;;;;9.40;4.57;;;;;;;16.88;100.00;101751.09;2097173;28;20242;-62
2022/10/01 00:09:31;;;;;;;9.67;4.60;;;;;;;16.92;100.00;101748.97;2096951;28;20396;-62
2022/10/01 00:10:31;;;;;;;7.90;4.47;;;;;;;16.90;100.00;101747.84;2103789;28;20826;-62
2022/10/01 00:11:33;;;;;;;13.23;4.90;;;;;;;16.86;100.00;101747.94;2097289;28;20426;-62
2022/10/01 00:12:33;;;;;;;8.90;4.30;;;;;;;16.76;100.00;101729.47;2097003;28;20191;-62
2022/10/01 00:13:35;;;;;;;10.17;4.60;;;;;;;16.83;100.00;101750.84;2096732;28;20422;-62
2022/10/01 00:14:37;;;;;;;6.90;4.43;;;;;;;16.85;100.00;101756.81;2094717;28;20497;-62
2022/10/01 00:15:39;;;;;;;6.73;3.93;;;;;;;16.41;100.00;101685.03;2089627;28;20423;-61
2022/10/01 00:16:40;;;;;;;11.37;4.73;;;;;;;16.80;100.00;101757.38;2096123;28;20476;-62
2022/10/01 00:17:42;;;;;;;12.37;5.23;;;;;;;16.79;100.00;101750.19;2088800;28;20411;-62
2022/10/01 00:18:44;;;;;;;7.80;4.60;;;;;;;16.81;100.00;101756.13;2096320;28;20184;-61
2022/10/01 00:19:45;;;;;;;7.30;5.10;;;;;;;16.86;100.00;101752.78;2096770;28;20442;-61
2022/10/01 00:20:45;;;;;;;6.40;4.77;;;;;;;16.88;100.00;101749.53;2097421;28;20923;-61
2022/10/01 00:21:46;;;;;;;10.00;5.17;;;;;;;16.88;100.00;101751.09;2096838;28;20662;-61
2022/10/01 00:22:46;;;;;;;7.20;4.30;;;;;;;16.88;100.00;101755.13;2093941;28;20186;-61
2022/10/01 00:23:52;;;;;;;9.47;4.23;;;;;;;16.56;100.00;101711.34;2094583;28;20176;-61
2022/10/01 00:24:52;;;;;;;6.40;4.20;;;;;;;16.86;100.00;101758.38;2096008;28;20258;-61
2022/10/01 00:25:52;;;;;;;8.47;4.13;;;;;;;16.87;100.00;101757.13;2096651;28;20412;-61
2022/10/01 00:26:53;;;;;;;6.80;4.07;;;;;;;16.80;100.00;101749.72;2104714;28;20204;-61
2022/10/01 00:27:53;;;;;;;5.33;4.00;;;;;;;16.86;100.00;101752.78;2089308;28;20184;-61
2022/10/01 00:28:57;;;;;;;8.83;4.97;;;;;;;16.61;100.00;101713.56;2101490;28;20205;-61
2022/10/01 00:29:57;;;;;;;7.20;3.93;;;;;;;16.89;100.00;101754.66;2099470;28;20185;-61
2022/10/01 00:30:58;;;;;;;7.17;4.90;;;;;;;16.90;100.00;101756.25;2092691;28;20430;-61
2022/10/01 00:31:59;;;;;;;10.00;5.27;;;;;;;16.94;100.00;101751.28;2088634;28;20182;-61
2022/10/01 00:32:59;;;;;;;9.40;4.90;;;;;;;16.44;100.00;101686.94;2091065;28;20812;-61
2022/10/01 00:34:04;;;;;;;7.43;4.67;;;;;;;16.87;100.00;101743.13;2095333;28;20270;-61
2022/10/01 00:35:08;;;;;;;6.30;4.37;;;;;;;16.81;100.00;101734.50;2088654;28;20201;-61
2022/10/01 00:36:10;;;;;;;7.87;4.20;;;;;;;16.83;100.00;101748.84;2089061;28;20437;-62
2022/10/01 00:37:11;;;;;;;7.80;4.47;;;;;;;16.83;100.00;101751.66;2088367;28;20501;-61
2022/10/01 00:38:13;;;;;;;10.57;3.93;;;;;;;16.84;100.00;101749.63;2088534;28;20433;-61
2022/10/01 00:39:14;;;;;;;5.83;5.13;;;;;;;16.81;100.00;101745.69;2087522;28;20894;-62
2022/10/01 00:40:15;;;;;;;9.50;4.63;;;;;;;16.81;100.00;101744.94;2093325;28;20441;-62
2022/10/01 00:41:17;;;;;;;9.57;4.90;;;;;;;16.78;100.00;101740.22;2096793;28;20265;-62
2022/10/01 00:42:25;;;;;;;5.93;5.17;;;;;;;16.74;100.00;101734.72;2096996;28;20471;-61
2022/10/01 00:43:28;;;;;;;7.90;5.20;;;;;;;16.76;100.00;101732.25;2096774;28;20446;-61
2022/10/01 00:44:32;;;;;;;12.33;5.00;;;;;;;16.79;100.00;101738.97;2096301;28;20935;-61
2022/10/01 00:45:33;;;;;;;6.90;4.50;;;;;;;16.78;100.00;101738.22;2096723;28;20421;-61
2022/10/01 00:46:44;;;;;;;8.07;4.20;;;;;;;16.68;100.00;101705.75;2096197;28;20524;-61
2022/10/01 00:47:50;;;;;;;7.10;4.33;;;;;;;16.83;100.00;101733.28;2089620;28;20185;-62
2022/10/01 00:49:07;;;;;;;8.93;4.87;;;;;;;16.74;100.00;101723.53;2104780;28;20408;-61
2022/10/01 00:50:43;;;;;;;8.47;5.20;;;;;;;16.79;100.00;101722.97;2095332;28;20500;-62
2022/10/01 00:51:51;;;;;;;20.70;5.57;;;;;;;16.77;100.00;101727.47;2075801;28;20455;-62
2022/10/01 00:52:56;;;;;;;16.47;5.20;;;;;;;16.73;100.00;101723.97;2079816;28;20431;-62
2022/10/01 00:54:05;;;;;;;7.63;4.30;;;;;;;16.73;100.00;101714.81;2083708;28;20538;-62
2022/10/01 00:55:11;;;;;;;7.90;4.00;;;;;;;16.35;100.00;101650.41;2092275;28;20433;-62
2022/10/01 00:56:12;;;;;;;8.53;4.23;;;;;;;16.74;100.00;101712.34;2092661;28;20449;-62
2022/10/01 00:57:15;;;;;;;7.83;3.70;;;;;;;16.74;100.00;101715.13;2096068;28;20481;-62
2022/10/01 00:58:17;;;;;;;10.87;4.10;;;;;;;16.75;100.00;101713.91;2098973;28;20669;-62
2022/10/01 00:59:18;;;;;;;9.87;3.90;;;;;;;16.19;100.00;101626.13;2103713;28;20512;-62
2022/10/01 01:00:19;;;;;;;10.00;3.97;;;;;;;16.73;100.00;101710.78;2096721;28;20919;-62
2022/10/01 01:01:19;;;;;;;10.33;5.00;;;;;;;16.73;100.00;101718.38;2097233;28;20177;-61
2022/10/01 01:02:20;;;;;;;6.53;3.97;;;;;;;16.73;100.00;101709.97;2089848;28;20268;-61
2022/10/01 01:03:20;;;;;;;12.87;4.03;;;;;;;16.70;100.00;101710.91;2088464;28;20201;-61
2022/10/01 01:04:21;;;;;;;9.03;3.40;;;;;;;16.70;100.00;101711.66;2088044;28;20648;-62
2022/10/01 01:05:22;;;;;;;8.13;3.07;;;;;;;16.69;100.00;101712.91;2095942;28;20203;-61
2022/10/01 01:06:22;;;;;;;13.60;3.60;;;;;;;16.68;100.00;101705.75;2102685;28;20410;-61
2022/10/01 01:07:23;;;;;;;6.47;3.03;;;;;;;16.66;100.00;101697.00;2095955;28;20201;-61
2022/10/01 01:08:24;;;;;;;7.57;3.60;;;;;;;16.66;100.00;101702.59;2096472;28;20200;-62
2022/10/01 01:09:31;;;;;;;11.07;4.00;;;;;;;16.64;100.00;101698.69;2096923;28;20176;-62
2022/10/01 01:10:58;;;;;;;8.77;3.93;;;;;;;16.63;100.00;101699.16;2097236;28;20228;-62
2022/10/01 01:12:00;;;;;;;6.40;3.77;;;;;;;16.60;100.00;101698.03;2095189;28;20426;-62
2022/10/01 01:13:25;;;;;;;10.97;3.90;;;;;;;16.50;100.00;101679.56;2090798;28;20429;-61
2022/10/01 01:14:44;;;;;;;9.33;3.40;;;;;;;16.53;100.00;101693.44;2092742;28;20983;-61
2022/10/01 01:15:44;;;;;;;10.73;3.20;;;;;;;16.49;100.00;101692.75;2094106;28;20536;-62
2022/10/01 01:16:51;;;;;;;8.90;3.57;;;;;;;16.48;100.00;101695.22;2089864;28;20438;-61
2022/10/01 01:18:32;;;;;;;10.97;4.07;;;;;;;16.37;100.00;101690.69;2092266;28;20168;-61
2022/10/01 01:19:49;;;;;;;7.67;3.70;;;;;;;16.34;100.00;101688.03;2105334;28;20441;-62
2022/10/01 01:20:50;;;;;;;8.90;3.97;;;;;;;16.33;100.00;101698.41;2098657;28;20437;-61
2022/10/01 01:21:59;;;;;;;7.33;3.53;;;;;;;16.33;100.00;101694.81;2091180;28;20671;-61
2022/10/01 01:23:31;;;;;;;8.20;3.40;;;;;;;16.30;100.00;101698.53;2104199;28;20192;-61
2022/10/01 01:24:48;;;;;;;13.17;3.27;;;;;;;16.28;100.00;101704.56;2088617;28;20457;-61
2022/10/01 01:26:04;;;;;;;15.57;3.70;;;;;;;16.28;100.00;101689.78;2097949;28;20899;-61
2022/10/01 01:27:25;;;;;;;9.27;3.40;;;;;;;16.28;100.00;101695.38;2097731;28;20916;-61
2022/10/01 01:28:32;;;;;;;6.87;3.43;;;;;;;16.27;100.00;101689.00;2097913;28;20496;-61
2022/10/01 01:29:41;;;;;;;16.83;3.70;;;;;;;16.24;100.00;101689.13;2094064;28;20441;-61
2022/10/01 01:30:43;;;;;;;10.43;4.30;;;;;;;16.24;100.00;101683.53;2094227;28;20898;-62
2022/10/01 01:31:45;;;;;;;7.17;3.87;;;;;;;16.23;100.00;101679.94;2098023;28;20438;-62
2022/10/01 01:32:51;;;;;;;8.07;4.20;;;;;;;16.16;100.00;101677.38;2096167;28;20417;-61
2022/10/01 01:33:56;;;;;;;6.87;3.60;;;;;;;16.22;100.00;101695.16;2089744;28;20991;-61
2022/10/01 01:35:01;;;;;;;8.27;3.60;;;;;;;16.00;100.00;101655.09;2091173;28;20414;-61
2022/10/01 01:36:09;;;;;;;7.93;3.70;;;;;;;16.23;100.00;101691.13;2097876;28;20429;-61
2022/10/01 01:37:14;;;;;;;11.83;4.30;;;;;;;16.24;100.00;101697.50;2096837;28;20396;-61
2022/10/01 01:38:27;;;;;;;8.60;4.77;;;;;;;16.28;100.00;101706.56;2089775;28;20421;-61
2022/10/01 01:39:31;;;;;;;6.70;3.73;;;;;;;16.26;100.00;101703.44;2097738;28;20938;-61
2022/10/01 01:40:35;;;;;;;8.47;3.93;;;;;;;16.27;100.00;101716.97;2098510;28;20495;-61
2022/10/01 01:41:41;;;;;;;8.10;4.13;;;;;;;16.28;100.00;101717.75;2089996;28;20449;-61
2022/10/01 01:42:45;;;;;;;8.37;3.73;;;;;;;16.27;100.00;101716.19;2090354;28;20488;-61
2022/10/01 01:43:50;;;;;;;8.77;3.87;;;;;;;16.22;100.00;101705.56;2097042;28;20451;-61
2022/10/01 01:44:53;;;;;;;9.07;4.10;;;;;;;15.82;100.00;101654.00;2091023;28;20445;-62
2022/10/01 01:45:54;;;;;;;11.57;4.90;;;;;;;15.97;100.00;101691.50;2089798;28;20453;-61
2022/10/01 01:46:56;;;;;;;12.97;5.03;;;;;;;16.05;100.00;101704.88;2089412;28;20516;-61
2022/10/01 01:47:59;;;;;;;8.77;4.20;;;;;;;16.13;100.00;101723.00;2093271;28;20585;-62
2022/10/01 01:49:03;;;;;;;11.70;4.60;;;;;;;16.12;100.00;101721.44;2098457;28;20420;-61
2022/10/01 01:50:06;;;;;;;8.17;3.93;;;;;;;16.15;100.00;101728.16;2097856;28;20412;-61
2022/10/01 01:51:16;;;;;;;9.90;4.50;;;;;;;16.17;100.00;101731.28;2097962;28;20429;-61
2022/10/01 01:52:17;;;;;;;8.67;4.40;;;;;;;16.17;100.00;101722.88;2100096;28;20410;-61
2022/10/01 01:53:19;;;;;;;14.57;4.37;;;;;;;16.15;100.00;101728.94;2105386;28;20423;-61
2022/10/01 01:54:19;;;;;;;11.13;4.87;;;;;;;16.07;100.00;101718.38;2098146;28;20183;-61
2022/10/01 01:55:25;;;;;;;8.97;4.60;;;;;;;15.96;100.00;101729.09;2089812;28;20433;-61
2022/10/01 01:56:26;;;;;;;10.10;4.43;;;;;;;16.00;100.00;101727.78;2105701;28;20170;-61
2022/10/01 01:57:26;;;;;;;9.13;4.13;;;;;;;16.01;100.00;101732.13;2099116;28;20575;-61
2022/10/01 01:58:28;;;;;;;9.40;4.20;;;;;;;16.04;100.00;101744.44;2097813;28;20237;-61
2022/10/01 01:59:30;;;;;;;15.90;4.70;;;;;;;16.04;100.00;101731.22;2093302;28;20196;-61
2022/10/01 02:00:30;;;;;;;8.17;4.27;;;;;;;16.03;100.00;101732.47;2096947;28;20798;-61
2022/10/01 02:01:38;;;;;;;11.07;4.20;;;;;;;16.02;100.00;101730.91;2101368;28;20436;-61
2022/10/01 02:02:45;;;;;;;11.73;3.97;;;;;;;16.04;100.00;101725.66;2092264;28;20539;-61
2022/10/01 02:03:46;;;;;;;8.97;3.80;;;;;;;16.04;100.00;101722.84;2097925;28;20416;-61
2022/10/01 02:04:53;;;;;;;10.30;4.20;;;;;;;16.05;100.00;101721.66;2096729;28;20426;-61
2022/10/01 02:06:24;;;;;;;7.33;3.70;;;;;;;16.04;100.00;101725.66;2091061;28;20164;-61
2022/10/01 02:07:43;;;;;;;8.93;3.23;;;;;;;16.02;100.00;101728.09;2101960;28;20523;-61
2022/10/01 02:08:57;;;;;;;9.30;4.00;;;;;;;15.95;100.00;101719.94;2092683;28;20447;-61
2022/10/01 02:10:03;;;;;;;7.33;5.10;;;;;;;16.03;100.00;101731.69;2095259;28;20747;-61
2022/10/01 02:11:36;;;;;;;9.20;5.10;;;;;;;16.01;100.00;101731.34;2097861;28;20417;-61
2022/10/01 02:12:43;;;;;;;8.33;3.73;;;;;;;16.01;100.00;101729.34;2089679;28;20473;-61
2022/10/01 02:13:49;;;;;;;7.77;3.70;;;;;;;16.01;100.00;101732.13;2094728;28;20402;-61
2022/10/01 02:15:02;;;;;;;11.07;4.20;;;;;;;16.01;100.00;101725.75;2097451;28;20448;-61
2022/10/01 02:16:23;;;;;;;8.17;3.70;;;;;;;16.01;100.00;101725.75;2089749;28;20469;-61
2022/10/01 02:17:42;;;;;;;5.87;4.00;;;;;;;16.00;100.00;101726.97;2089876;28;20403;-61
2022/10/01 02:19:20;;;;;;;9.87;4.07;;;;;;;15.98;100.00;101735.03;2097664;28;20402;-61
2022/10/01 02:20:45;;;;;;;7.00;3.90;;;;;;;15.97;100.00;101730.66;2097929;28;20439;-61
2022/10/01 02:22:10;;;;;;;10.13;3.90;;;;;;;15.95;100.00;101731.13;2089680;28;20403;-61
2022/10/01 02:23:16;;;;;;;7.63;3.80;;;;;;;15.93;100.00;101730.75;2089530;28;20395;-61
2022/10/01 02:24:45;;;;;;;9.37;4.63;;;;;;;15.93;100.00;101735.59;2088277;28;20486;-61
2022/10/01 02:25:51;;;;;;;10.23;5.30;;;;;;;15.91;100.00;101741.63;2095957;28;20498;-61
2022/10/01 02:26:54;;;;;;;9.93;4.60;;;;;;;15.92;100.00;101745.97;2102902;28;20443;-61
2022/10/01 02:28:00;;;;;;;8.53;4.77;;;;;;;15.94;100.00;101745.53;2099357;28;20419;-61
2022/10/01 02:29:07;;;;;;;7.23;3.90;;;;;;;15.95;100.00;101749.88;2104677;28;20416;-61
2022/10/01 02:30:09;;;;;;;7.60;3.80;;;;;;;15.98;100.00;101752.59;2096614;28;20402;-61
2022/10/01 02:31:12;;;;;;;9.23;4.27;;;;;;;15.98;100.00;101751.81;2089761;28;20407;-61
2022/10/01 02:32:16;;;;;;;12.70;4.27;;;;;;;16.00;100.00;101741.75;2098226;28;20413;-61
2022/10/01 02:33:23;;;;;;;10.77;4.53;;;;;;;16.00;100.00;101743.75;2089687;28;20955;-61
2022/10/01 02:34:28;;;;;;;7.37;4.27;;;;;;;16.01;100.00;101732.13;2089293;28;20441;-61
2022/10/01 02:35:32;;;;;;;6.60;4.50;;;;;;;15.70;100.00;101691.91;2089594;28;20950;-61
2022/10/01 02:36:36;;;;;;;9.30;4.07;;;;;;;15.93;100.00;101725.16;2096054;28;20508;-61
2022/10/01 02:37:39;;;;;;;9.90;4.37;;;;;;;16.02;100.00;101736.50;2091264;28;20473;-61
2022/10/01 02:38:43;;;;;;;12.63;4.00;;;;;;;16.03;100.00;101732.47;2089336;28;21021;-61
2022/10/01 02:39:46;;;;;;;10.13;3.77;;;;;;;16.03;100.00;101740.84;2088932;28;20476;-61
2022/10/01 02:40:49;;;;;;;8.30;3.80;;;;;;;15.92;100.00;101715.22;2093653;28;20788;-61
2022/10/01 02:41:53;;;;;;;8.30;5.10;;;;;;;15.79;100.00;101708.78;2094420;28;20481;-61
2022/10/01 02:42:58;;;;;;;10.13;4.00;;;;;;;15.98;100.00;101737.84;2089738;28;20968;-61
2022/10/01 02:44:07;;;;;;;6.90;3.93;;;;;;;15.87;100.00;101726.94;2088953;28;20410;-61
2022/10/01 02:45:09;;;;;;;9.67;3.97;;;;;;;15.93;100.00;101732.78;2089290;28;20788;-61
2022/10/01 02:46:20;;;;;;;5.77;4.07;;;;;;;15.93;100.00;101738.38;2091148;28;20418;-61
2022/10/01 02:47:32;;;;;;;19.93;4.83;;;;;;;15.57;100.00;101690.28;2104124;28;20461;-61
2022/10/01 02:48:34;;;;;;;9.73;4.83;;;;;;;15.88;100.00;101744.50;2095614;28;20481;-61
2022/10/01 02:49:36;;;;;;;7.37;4.13;;;;;;;15.78;100.00;101732.38;2089792;28;20423;-61
2022/10/01 02:50:46;;;;;;;11.73;4.60;;;;;;;15.86;100.00;101744.94;2098015;28;20410;-61
2022/10/01 02:52:14;;;;;;;9.43;4.57;;;;;;;15.86;100.00;101749.75;2089388;28;20425;-61
2022/10/01 02:53:30;;;;;;;11.30;4.50;;;;;;;15.85;100.00;101746.19;2094045;28;20420;-61
2022/10/01 02:54:38;;;;;;;8.63;4.37;;;;;;;15.82;100.00;101747.06;2105540;28;20432;-61
2022/10/01 02:55:41;;;;;;;9.63;4.27;;;;;;;15.80;100.00;101746.72;2099125;28;20422;-61
2022/10/01 02:58:00;;;;;;;17.43;4.40;;;;;;;15.74;100.00;101731.72;2097826;28;20443;-61
2022/10/01 02:59:00;;;;;;;9.03;4.90;;;;;;;15.69;100.00;101740.63;2089349;28;20813;-61
2022/10/01 03:00:08;;;;;;;11.30;5.50;;;;;;;15.63;100.00;101747.97;2091684;28;20169;-61
2022/10/01 03:01:09;;;;;;;6.33;4.00;;;;;;;15.59;100.00;101740.91;2103034;28;20213;-61
2022/10/01 03:02:10;;;;;;;5.70;3.60;;;;;;;15.61;100.00;101741.25;2089408;28;20415;-61
2022/10/01 03:03:10;;;;;;;7.67;3.83;;;;;;;15.61;100.00;101746.84;2089541;28;20198;-60
2022/10/01 03:04:12;;;;;;;8.13;3.70;;;;;;;15.45;100.00;101713.34;2103487;28;20179;-61
2022/10/01 03:05:14;;;;;;;5.13;3.60;;;;;;;15.62;100.00;101742.84;2099310;28;20208;-61
2022/10/01 03:06:14;;;;;;;9.53;5.47;;;;;;;15.56;100.00;101739.78;2097606;28;20907;-61
2022/10/01 03:07:15;;;;;;;6.67;4.47;;;;;;;15.57;100.00;101732.19;2096802;28;20456;-61
2022/10/01 03:08:16;;;;;;;10.00;5.83;;;;;;;15.57;100.00;101735.75;2097102;28;20824;-61
2022/10/01 03:09:16;;;;;;;5.60;4.23;;;;;;;15.59;100.00;101740.91;2095136;28;20832;-60
2022/10/01 03:10:17;;;;;;;4.20;3.67;;;;;;;15.59;100.00;101752.09;2090078;28;20222;-60
2022/10/01 03:11:18;;;;;;;7.40;3.60;;;;;;;15.58;100.00;101747.72;2097691;28;20250;-61
2022/10/01 03:12:19;;;;;;;9.80;4.87;;;;;;;15.53;100.00;101745.47;2097567;28;20188;-61
2022/10/01 03:13:22;;;;;;;11.23;5.80;;;;;;;15.52;100.00;101744.66;2096647;28;20445;-61
2022/10/01 03:14:23;;;;;;;8.67;6.30;;;;;;;15.51;100.00;101731.13;2096560;28;20214;-61
2022/10/01 03:15:23;;;;;;;10.17;5.97;;;;;;;15.46;100.00;101726.88;2092075;28;20481;-61
2022/10/01 03:16:24;;;;;;;8.50;6.03;;;;;;;15.51;100.00;101737.53;2096701;28;20457;-61
2022/10/01 03:17:25;;;;;;;7.63;5.30;;;;;;;15.52;100.00;101736.28;2099755;28;20183;-61
2022/10/01 03:18:25;;;;;;;7.70;4.47;;;;;;;15.51;100.00;101733.94;2088701;28;20549;-61
2022/10/01 03:19:26;;;;;;;6.70;4.27;;;;;;;15.58;100.00;101745.69;2088921;28;20204;-61
2022/10/01 03:20:26;;;;;;;7.30;4.20;;;;;;;15.61;100.00;101742.03;2097754;28;20174;-61
2022/10/01 03:21:27;;;;;;;10.07;4.70;;;;;;;15.61;100.00;101741.25;2097275;28;20190;-61
2022/10/01 03:22:27;;;;;;;6.03;4.50;;;;;;;15.58;100.00;101748.50;2097487;28;20221;-61
2022/10/01 03:23:27;;;;;;;8.23;5.90;;;;;;;15.61;100.00;101755.22;2097208;28;20179;-61
2022/10/01 03:24:28;;;;;;;9.10;5.23;;;;;;;15.62;100.00;101749.19;2096914;28;20198;-61
2022/10/01 03:25:28;;;;;;;7.77;5.47;;;;;;;15.64;100.00;101757.94;2100004;28;20229;-61
2022/10/01 03:26:29;;;;;;;11.20;5.53;;;;;;;15.65;100.00;101759.50;2104017;28;20179;-61
2022/10/01 03:27:30;;;;;;;11.33;6.03;;;;;;;15.65;100.00;101755.91;2096823;28;20570;-61
2022/10/01 03:28:30;;;;;;;9.07;6.57;;;;;;;15.62;100.00;101763.16;2097236;28;20195;-61
2022/10/01 03:29:31;;;;;;;7.60;5.93;;;;;;;15.34;100.00;101716.44;2096286;28;20210;-61
2022/10/01 03:32:28;;;;;;;12.87;6.17;;;;;;;15.57;100.00;101748.97;2092876;28;20204;-61
2022/10/01 03:33:28;;;;;;;10.63;5.77;;;;;;;15.63;100.00;101752.78;2097009;28;20433;-61
2022/10/01 03:34:29;;;;;;;9.70;5.00;;;;;;;15.58;100.00;101759.66;2092938;28;20286;-61
2022/10/01 03:35:31;;;;;;;10.93;6.33;;;;;;;15.60;100.00;101756.44;2103660;28;20288;-61
2022/10/01 03:36:31;;;;;;;7.90;5.47;;;;;;;15.64;100.00;101759.94;2103733;28;20206;-61
2022/10/01 03:37:31;;;;;;;6.53;4.33;;;;;;;15.66;100.00;101768.66;2093558;28;20435;-61
2022/10/01 03:38:32;;;;;;;10.13;4.80;;;;;;;15.70;100.00;101775.75;2092235;28;20291;-61
2022/10/01 03:39:33;;;;;;;9.70;4.70;;;;;;;15.71;100.00;101782.09;2097129;28;20618;-61
2022/10/01 03:40:36;;;;;;;8.57;4.60;;;;;;;15.71;100.00;101768.13;2097137;28;20207;-60
2022/10/01 03:41:37;;;;;;;10.43;4.70;;;;;;;15.69;100.00;101763.00;2089151;28;20755;-60
2022/10/01 03:42:37;;;;;;;8.27;4.50;;;;;;;15.68;100.00;101761.41;2097730;28;20409;-61
2022/10/01 03:43:38;;;;;;;10.03;5.70;;;;;;;15.70;100.00;101772.16;2089505;28;20179;-61
2022/10/01 03:44:38;;;;;;;7.20;4.43;;;;;;;15.72;100.00;101769.72;2088743;28;20720;-61
2022/10/01 03:45:38;;;;;;;13.13;4.90;;;;;;;15.68;100.00;101771.81;2088929;28;20188;-61
2022/10/01 03:46:39;;;;;;;13.00;4.90;;;;;;;15.72;100.00;101764.91;2092514;28;20202;-61
2022/10/01 03:47:39;;;;;;;9.17;4.80;;;;;;;15.66;100.00;101754.69;2096953;28;20582;-61
2022/10/01 03:48:40;;;;;;;9.70;5.40;;;;;;;15.73;100.00;101758.06;2096883;28;20203;-60
2022/10/01 03:49:40;;;;;;;9.83;5.60;;;;;;;15.68;100.00;101766.22;2095990;28;20206;-60
2022/10/01 03:50:41;;;;;;;10.40;4.50;;;;;;;15.67;100.00;101765.44;2089437;28;20657;-60
2022/10/01 03:51:41;;;;;;;9.13;4.70;;;;;;;15.68;100.00;101769.78;2096183;28;20183;-61
2022/10/01 03:52:43;;;;;;;10.20;4.67;;;;;;;15.69;100.00;101765.00;2103785;28;20191;-61
2022/10/01 03:53:44;;;;;;;8.00;4.10;;;;;;;15.70;100.00;101772.94;2105190;28;20541;-61
2022/10/01 03:54:44;;;;;;;9.57;4.50;;;;;;;15.65;100.00;101764.28;2096990;28;20462;-61
2022/10/01 03:55:45;;;;;;;7.70;4.93;;;;;;;15.69;100.00;101765.78;2094412;28;20179;-61
2022/10/01 03:56:45;;;;;;;8.07;4.10;;;;;;;15.63;100.00;101763.97;2101440;28;20202;-61
2022/10/01 03:57:46;;;;;;;9.93;4.20;;;;;;;15.61;100.00;101760.81;2089648;28;20179;-61
2022/10/01 03:58:46;;;;;;;8.37;4.00;;;;;;;15.45;100.00;101739.28;2105798;28;20694;-61
2022/10/01 03:59:46;;;;;;;8.03;4.43;;;;;;;15.60;100.00;101762.03;2097365;28;20264;-61
2022/10/01 04:00:47;;;;;;;9.73;4.13;;;;;;;15.60;100.00;101756.44;2097268;28;20223;-61
2022/10/01 04:01:48;;;;;;;11.03;4.43;;;;;;;15.61;100.00;101758.00;2091360;28;20183;-61
2022/10/01 04:02:48;;;;;;;6.77;4.23;;;;;;;15.64;100.00;101752.34;2093364;28;20187;-61
2022/10/01 04:03:49;;;;;;;8.17;4.00;;;;;;;15.63;100.00;101752.78;2097067;28;20180;-61
2022/10/01 04:04:49;;;;;;;5.97;4.60;;;;;;;15.58;100.00;101744.94;2096553;28;20543;-61
2022/10/01 04:05:50;;;;;;;10.93;4.73;;;;;;;15.65;100.00;101767.09;2096179;28;20176;-61
2022/10/01 04:06:50;;;;;;;6.43;4.27;;;;;;;15.66;100.00;101763.84;2093978;28;20184;-61
2022/10/01 04:07:51;;;;;;;7.37;3.90;;;;;;;15.65;100.00;101755.91;2104587;28;20217;-61
2022/10/01 04:08:51;;;;;;;5.70;4.27;;;;;;;15.65;100.00;101764.28;2091517;28;20649;-61
2022/10/01 04:09:52;;;;;;;7.33;3.80;;;;;;;15.65;100.00;101761.50;2088491;28;20188;-61
2022/10/01 04:10:52;;;;;;;6.17;4.13;;;;;;;15.65;100.00;101762.28;2091249;28;20216;-61
2022/10/01 04:11:53;;;;;;;9.30;3.90;;;;;;;15.65;100.00;101765.09;2096904;28;20187;-61
2022/10/01 04:12:54;;;;;;;8.63;4.40;;;;;;;15.66;100.00;101765.84;2094849;28;20565;-61
2022/10/01 04:13:56;;;;;;;12.73;4.63;;;;;;;15.67;100.00;101767.44;2090779;28;20444;-61
2022/10/01 04:14:57;;;;;;;11.93;4.57;;;;;;;15.35;100.00;101731.97;2104387;28;20189;-61
2022/10/01 04:15:57;;;;;;;15.93;4.77;;;;;;;15.68;100.00;101766.22;2088757;28;20394;-61
2022/10/01 04:16:58;;;;;;;11.80;4.40;;;;;;;15.69;100.00;101767.78;2088351;28;20711;-61
2022/10/01 04:18:01;;;;;;;11.63;4.20;;;;;;;15.71;100.00;101773.72;2094757;28;20187;-61
2022/10/01 04:19:02;;;;;;;4.90;3.07;;;;;;;15.23;100.00;101689.97;2097103;28;20446;-61
2022/10/01 04:20:03;;;;;;;7.63;3.60;;;;;;;15.69;100.00;101760.19;2091944;28;20473;-61
2022/10/01 04:21:04;;;;;;;9.13;3.80;;;;;;;15.20;100.00;101683.25;2095680;28;20444;-61
2022/10/01 04:22:04;;;;;;;8.87;3.43;;;;;;;15.62;100.00;101751.22;2100596;28;20167;-61
2022/10/01 04:23:04;;;;;;;6.77;3.93;;;;;;;15.57;100.00;101748.97;2089735;28;20256;-61
2022/10/01 04:24:05;;;;;;;9.87;4.27;;;;;;;15.56;100.00;101758.53;2096581;28;20175;-61
2022/10/01 04:25:09;;;;;;;8.03;4.10;;;;;;;15.57;100.00;101762.94;2088762;28;20192;-63
2022/10/01 04:26:10;;;;;;;15.13;5.60;;;;;;;15.50;100.00;101751.91;2096560;28;20198;-63
2022/10/01 04:27:10;;;;;;;13.80;5.17;;;;;;;15.52;100.00;101760.66;2102661;28;20825;-62
2022/10/01 04:28:12;;;;;;;11.63;5.30;;;;;;;15.41;100.00;101765.72;2099559;28;20216;-64
2022/10/01 04:29:13;;;;;;;8.23;4.10;;;;;;;15.38;100.00;101764.59;2096711;28;20183;-62
2022/10/01 04:30:13;;;;;;;9.63;4.73;;;;;;;15.45;100.00;101770.00;2097031;28;20621;-60
2022/10/01 04:31:25;;;;;;;6.97;4.33;;;;;;;15.40;100.00;101761.34;2094644;28;20174;-60
2022/10/01 04:32:26;;;;;;;9.80;4.63;;;;;;;15.34;100.00;101747.16;2091265;28;20295;-60
2022/10/01 04:33:26;;;;;;;8.97;4.43;;;;;;;15.38;100.00;101752.66;2096666;28;20423;-59
2022/10/01 04:34:51;;;;;;;13.20;5.70;;;;;;;15.39;100.00;101743.03;2096695;28;20196;-60
2022/10/01 04:35:47;;;;;;;8.57;4.70;;;;;;;15.36;100.00;101752.31;2096358;28;20193;-61
2022/10/01 04:36:47;;;;;;;7.13;4.30;;;;;;;15.36;100.00;101753.06;2096493;28;20426;-61
2022/10/01 04:38:00;;;;;;;9.73;4.80;;;;;;;15.36;100.00;101764.25;2097127;28;20254;-61
2022/10/01 04:39:01;;;;;;;7.70;3.80;;;;;;;15.36;100.00;101755.88;2096871;28;20353;-61
2022/10/01 04:40:01;;;;;;;6.33;3.97;;;;;;;15.36;100.00;101746.72;2088653;28;20473;-61
2022/10/01 04:41:02;;;;;;;9.20;5.30;;;;;;;15.11;100.00;101710.22;2095840;28;20221;-61
2022/10/01 04:42:02;;;;;;;15.13;6.50;;;;;;;15.37;100.00;101743.47;2090965;28;20196;-61
2022/10/01 04:43:05;;;;;;;6.87;5.20;;;;;;;15.36;100.00;101746.72;2093604;28;20200;-61
2022/10/01 04:44:05;;;;;;;11.33;5.70;;;;;;;15.35;100.00;101747.91;2096531;28;20195;-61
2022/10/01 04:45:07;;;;;;;10.20;5.23;;;;;;;15.14;100.00;101717.72;2096513;28;20429;-61
2022/10/01 04:46:08;;;;;;;9.20;5.40;;;;;;;15.42;100.00;101756.13;2096940;28;20167;-61
2022/10/01 04:47:08;;;;;;;15.77;5.83;;;;;;;15.46;100.00;101754.81;2095496;28;20408;-61
2022/10/01 04:48:09;;;;;;;15.80;6.37;;;;;;;15.47;100.00;101761.97;2090289;28;20207;-61
2022/10/01 04:49:09;;;;;;;24.93;7.27;;;;;;;15.47;100.00;101752.81;2098090;28;20226;-61
2022/10/01 04:50:10;;;;;;;17.77;6.77;;;;;;;15.50;100.00;101763.91;2091587;28;20184;-61
2022/10/01 04:51:10;;;;;;;15.17;6.07;;;;;;;15.49;100.00;101758.75;2090256;28;20190;-61
2022/10/01 04:52:11;;;;;;;33.53;8.17;;;;;;;15.54;100.00;101769.38;2099377;28;20230;-61
2022/10/01 04:53:11;;;;;;;31.53;7.97;;;;;;;15.45;100.00;101755.25;2099955;28;20194;-61
2022/10/01 04:54:12;;;;;;;17.57;6.67;;;;;;;15.58;100.00;101767.28;2090001;28;20631;-61
2022/10/01 04:55:14;;;;;;;14.57;6.27;;;;;;;15.60;100.00;101770.41;2091055;28;20222;-61
2022/10/01 04:56:15;;;;;;;12.67;6.50;;;;;;;15.60;100.00;101776.81;2098406;28;20256;-61
2022/10/01 04:57:15;;;;;;;9.20;5.83;;;;;;;15.62;100.00;101781.97;2089971;28;20422;-61